createdAt,value
2022-09-23T00:00:26.461Z,97.42
2022-09-23T00:01:26.590Z,98.04
2022-09-23T00:02:26.538Z,97.63
2022-09-23T00:03:26.422Z,97.73
2022-09-23T00:04:26.446Z,97.53
2022-09-23T00:05:26.416Z,97.73
2022-09-23T00:06:26.400Z,98.14
2022-09-23T00:07:26.888Z,97.32
2022-09-23T00:08:26.374Z,97.94
2022-09-23T00:09:26.375Z,97.22
2022-09-23T00:10:26.349Z,97.32
2022-09-23T00:11:32.892Z,97.42
2022-09-23T00:12:26.330Z,97.78
2022-09-23T00:13:26.311Z,97.12
2022-09-23T00:14:26.326Z,97.32
2022-09-23T00:15:26.296Z,97.63
2022-09-23T00:16:26.349Z,97.94
2022-09-23T00:17:26.279Z,97.94
2022-09-23T00:18:26.882Z,97.37
2022-09-23T00:19:26.431Z,97.53
2022-09-23T00:20:26.260Z,97.42
2022-09-23T00:21:26.257Z,97.42
2022-09-23T00:22:26.219Z,97.57
2022-09-23T00:23:26.206Z,97.63
2022-09-23T00:24:26.200Z,97.37
2022-09-23T00:25:26.209Z,97.37
2022-09-23T00:26:26.186Z,97.67
2022-09-23T00:27:26.164Z,97.88
2022-09-23T00:28:26.161Z,97.57
2022-09-23T00:29:26.144Z,97.57
2022-09-23T00:30:26.194Z,97.67
2022-09-23T00:31:26.239Z,97.99
2022-09-23T00:32:26.117Z,97.37
2022-09-23T00:33:26.891Z,97.27
2022-09-23T00:34:26.096Z,97.47
2022-09-23T00:35:26.079Z,97.47
2022-09-23T00:36:26.095Z,97.47
2022-09-23T00:37:26.075Z,97.99
2022-09-23T00:38:26.055Z,97.78
2022-09-23T00:39:26.038Z,97.78
2022-09-23T00:40:26.084Z,97.94
2022-09-23T00:41:26.028Z,97.37
2022-09-23T00:42:26.032Z,97.37
2022-09-23T00:43:25.991Z,97.99
2022-09-23T00:44:26.005Z,97.53
2022-09-23T00:45:25.975Z,97.78
2022-09-23T00:46:26.900Z,97.73
2022-09-23T00:47:25.968Z,97.94
2022-09-23T00:48:25.967Z,97.63
2022-09-23T00:49:25.925Z,97.88
2022-09-23T00:50:25.923Z,97.83
2022-09-23T00:51:25.905Z,97.83
2022-09-23T00:52:25.908Z,98.08
2022-09-23T00:53:25.915Z,97.73
2022-09-23T00:54:26.391Z,97.57
2022-09-23T00:55:25.878Z,97.67
2022-09-23T00:56:25.866Z,97.67
2022-09-23T00:57:25.839Z,97.57
2022-09-23T00:58:25.843Z,97.57
2022-09-23T00:59:25.836Z,97.67
2022-09-23T01:00:26.395Z,97.06
2022-09-23T01:01:25.861Z,98.19
2022-09-23T01:02:25.899Z,97.83
2022-09-23T01:03:25.785Z,97.88
2022-09-23T01:04:25.922Z,97.67
2022-09-23T01:05:28.392Z,97.63
2022-09-23T01:06:25.750Z,97.73
2022-09-23T01:07:25.743Z,98.04
2022-09-23T01:08:25.720Z,97.88
2022-09-23T01:09:25.773Z,98.14
2022-09-23T01:10:26.393Z,97.94
2022-09-23T01:11:25.703Z,97.32
2022-09-23T01:12:25.692Z,97.32
2022-09-23T01:13:25.694Z,97.42
2022-09-23T01:14:25.663Z,97.42
2022-09-23T01:15:25.656Z,97.53
2022-09-23T01:16:25.685Z,97.53
2022-09-23T01:17:25.659Z,97.42
2022-09-23T01:18:28.382Z,97.94
2022-09-23T01:19:25.633Z,97.83
2022-09-23T01:20:25.595Z,98.04
2022-09-23T01:21:25.591Z,97.53
2022-09-23T01:22:25.598Z,97.94
2022-09-23T01:23:25.596Z,97.42
2022-09-23T01:24:25.552Z,97.67
2022-09-23T01:25:25.559Z,97.27
2022-09-23T01:26:25.537Z,97.57
2022-09-23T01:27:25.546Z,97.37
2022-09-23T01:28:25.518Z,97.57
2022-09-23T01:29:25.510Z,97.99
2022-09-23T01:30:25.592Z,97.16
2022-09-23T01:31:25.490Z,97.78
2022-09-23T01:32:26.402Z,97.78
2022-09-23T01:33:25.477Z,98.29
2022-09-23T01:34:27.426Z,98.29
2022-09-23T01:35:25.435Z,97.57
2022-09-23T01:36:25.438Z,98.19
2022-09-23T01:37:25.415Z,97.67
2022-09-23T01:38:25.425Z,97.27
2022-09-23T01:39:25.399Z,97.57
2022-09-23T01:40:25.423Z,97.78
2022-09-23T01:41:25.392Z,97.99
2022-09-23T01:42:25.359Z,97.67
2022-09-23T01:43:25.375Z,97.47
2022-09-23T01:44:25.360Z,98.19
2022-09-23T01:45:25.336Z,98.29
2022-09-23T01:46:25.315Z,97.99
2022-09-23T01:47:25.309Z,98.29
2022-09-23T01:48:25.377Z,98.29
2022-09-23T01:49:25.313Z,98.50
2022-09-23T01:50:27.898Z,98.60
2022-09-23T01:51:25.259Z,98.39
2022-09-23T01:52:25.261Z,98.08
2022-09-23T01:53:25.890Z,98.13
2022-09-23T01:54:25.236Z,98.08
2022-09-23T01:55:25.247Z,98.39
2022-09-23T01:56:25.218Z,98.33
2022-09-23T01:57:25.241Z,98.54
2022-09-23T01:58:25.196Z,98.54
2022-09-23T01:59:25.215Z,98.03
2022-09-23T02:00:25.166Z,98.24
2022-09-23T02:01:25.915Z,98.13
2022-09-23T02:02:25.278Z,98.08
2022-09-23T02:03:25.134Z,98.13
2022-09-23T02:04:27.893Z,97.99
2022-09-23T02:05:25.139Z,98.33
2022-09-23T02:06:31.901Z,98.33
2022-09-23T02:07:25.176Z,98.54
2022-09-23T02:08:25.897Z,98.54
2022-09-23T02:09:25.888Z,98.24
2022-09-23T02:10:25.161Z,98.13
2022-09-23T02:11:25.055Z,98.13
2022-09-23T02:12:27.908Z,98.13
2022-09-23T02:13:25.054Z,97.92
2022-09-23T02:14:25.033Z,98.08
2022-09-23T02:15:25.078Z,98.19
2022-09-23T02:16:25.029Z,98.24
2022-09-23T02:17:25.897Z,98.19
2022-09-23T02:18:24.973Z,98.39
2022-09-23T02:19:24.964Z,98.65
2022-09-23T02:20:24.978Z,98.29
2022-09-23T02:21:24.939Z,98.03
2022-09-23T02:22:24.926Z,97.82
2022-09-23T02:23:24.921Z,97.92
2022-09-23T02:24:24.919Z,98.33
2022-09-23T02:25:24.895Z,98.13
2022-09-23T02:26:24.892Z,98.13
2022-09-23T02:27:24.872Z,98.44
2022-09-23T02:28:25.943Z,98.33
2022-09-23T02:29:24.851Z,98.03
2022-09-23T02:30:24.924Z,98.54
2022-09-23T02:31:24.831Z,98.03
2022-09-23T02:32:24.820Z,98.44
2022-09-23T02:33:24.800Z,98.24
2022-09-23T02:34:24.790Z,98.24
2022-09-23T02:35:24.780Z,98.24
2022-09-23T02:36:24.802Z,98.13
2022-09-23T02:37:24.758Z,98.44
2022-09-23T02:38:24.751Z,98.44
2022-09-23T02:39:24.740Z,98.54
2022-09-23T02:40:24.783Z,98.50
2022-09-23T02:41:24.743Z,98.65
2022-09-23T02:42:24.717Z,98.54
2022-09-23T02:43:24.713Z,98.24
2022-09-23T02:44:24.710Z,98.75
2022-09-23T02:45:24.669Z,98.75
2022-09-23T02:46:24.814Z,98.96
2022-09-23T02:47:24.682Z,98.44
2022-09-23T02:48:24.659Z,98.85
2022-09-23T02:49:25.408Z,98.85
2022-09-23T02:50:24.618Z,98.44
2022-09-23T02:51:24.619Z,98.24
2022-09-23T02:52:24.595Z,98.49
2022-09-23T02:53:24.607Z,98.59
2022-09-23T02:54:24.592Z,98.38
2022-09-23T02:55:24.566Z,98.38
2022-09-23T02:56:24.553Z,98.54
2022-09-23T02:57:24.547Z,98.49
2022-09-23T02:58:24.550Z,98.13
2022-09-23T02:59:24.543Z,98.03
2022-09-23T03:00:24.526Z,98.24
2022-09-23T03:01:24.540Z,98.24
2022-09-23T03:02:25.419Z,98.24
2022-09-23T03:03:24.931Z,98.24
2022-09-23T03:04:26.419Z,98.33
2022-09-23T03:05:24.455Z,98.13
2022-09-23T03:06:24.448Z,98.24
2022-09-23T03:07:31.402Z,98.24
2022-09-23T03:08:24.435Z,98.44
2022-09-23T03:09:24.418Z,98.24
2022-09-23T03:10:24.385Z,98.75
2022-09-23T03:11:24.392Z,98.03
2022-09-23T03:12:24.377Z,98.33
2022-09-23T03:13:29.153Z,98.33
2022-09-23T03:14:25.894Z,98.13
2022-09-23T03:15:24.348Z,98.24
2022-09-23T03:16:24.503Z,98.65
2022-09-23T03:17:24.346Z,98.75
2022-09-23T03:18:24.348Z,98.65
2022-09-23T03:19:24.282Z,98.13
2022-09-23T03:20:24.295Z,98.44
2022-09-23T03:21:24.276Z,98.54
2022-09-23T03:22:24.282Z,98.13
2022-09-23T03:23:24.255Z,97.92
2022-09-23T03:24:24.255Z,98.13
2022-09-23T03:25:24.241Z,97.82
2022-09-23T03:26:24.424Z,98.54
2022-09-23T03:27:24.224Z,98.33
2022-09-23T03:28:24.222Z,98.24
2022-09-23T03:29:24.910Z,98.03
2022-09-23T03:30:24.225Z,98.13
2022-09-23T03:31:24.205Z,98.07
2022-09-23T03:32:25.066Z,98.49
2022-09-23T03:33:28.400Z,98.03
2022-09-23T03:34:24.145Z,98.24
2022-09-23T03:35:26.889Z,97.62
2022-09-23T03:36:24.134Z,97.66
2022-09-23T03:37:24.102Z,98.03
2022-09-23T03:38:24.101Z,97.41
2022-09-23T03:39:24.093Z,98.33
2022-09-23T03:40:24.183Z,97.72
2022-09-23T03:41:24.062Z,97.62
2022-09-23T03:42:26.898Z,97.82
2022-09-23T03:43:24.052Z,97.92
2022-09-23T03:44:24.025Z,97.82
2022-09-23T03:45:24.914Z,98.03
2022-09-23T03:46:24.005Z,97.62
2022-09-23T03:47:24.003Z,97.56
2022-09-23T03:48:24.025Z,97.52
2022-09-23T03:49:23.981Z,97.66
2022-09-23T03:50:23.963Z,97.52
2022-09-23T03:51:24.924Z,98.38
2022-09-23T03:52:23.948Z,98.03
2022-09-23T03:53:23.938Z,98.38
2022-09-23T03:54:23.926Z,98.28
2022-09-23T03:55:23.908Z,98.24
2022-09-23T03:56:23.903Z,98.38
2022-09-23T03:57:23.906Z,97.87
2022-09-23T03:58:23.897Z,97.36
2022-09-23T03:59:24.395Z,97.66
2022-09-23T04:00:23.858Z,97.66
2022-09-23T04:01:23.905Z,97.56
2022-09-23T04:02:23.943Z,97.97
2022-09-23T04:03:23.840Z,97.66
2022-09-23T04:04:24.476Z,97.97
2022-09-23T04:05:23.814Z,98.28
2022-09-23T04:06:24.805Z,98.18
2022-09-23T04:07:23.781Z,98.28
2022-09-23T04:08:24.397Z,98.12
2022-09-23T04:09:23.765Z,98.63
2022-09-23T04:10:23.755Z,98.12
2022-09-23T04:11:23.752Z,98.43
2022-09-23T04:12:23.733Z,98.63
2022-09-23T04:13:23.729Z,98.33
2022-09-23T04:14:23.710Z,98.43
2022-09-23T04:15:23.691Z,98.12
2022-09-23T04:16:23.711Z,98.43
2022-09-23T04:17:23.676Z,98.43
2022-09-23T04:18:23.661Z,98.33
2022-09-23T04:19:23.667Z,98.12
2022-09-23T04:20:23.650Z,98.33
2022-09-23T04:21:23.627Z,98.12
2022-09-23T04:22:23.624Z,98.22
2022-09-23T04:23:23.608Z,98.12
2022-09-23T04:24:23.666Z,98.12
2022-09-23T04:25:23.579Z,98.43
2022-09-23T04:26:23.580Z,98.63
2022-09-23T04:27:23.564Z,98.94
2022-09-23T04:28:23.549Z,99.35
2022-09-23T04:29:23.538Z,99.25
2022-09-23T04:30:23.555Z,99.15
2022-09-23T04:31:23.594Z,98.58
2022-09-23T04:32:23.528Z,98.68
2022-09-23T04:33:23.491Z,99.19
2022-09-23T04:34:23.510Z,98.47
2022-09-23T04:35:23.475Z,99.25
2022-09-23T04:36:23.525Z,99.19
2022-09-23T04:37:23.454Z,98.88
2022-09-23T04:38:23.600Z,99.09
2022-09-23T04:39:23.447Z,98.99
2022-09-23T04:40:23.478Z,98.99
2022-09-23T04:41:23.409Z,98.79
2022-09-23T04:42:23.424Z,99.19
2022-09-23T04:43:23.399Z,98.99
2022-09-23T04:44:23.492Z,99.19
2022-09-23T04:45:23.364Z,99.19
2022-09-23T04:46:23.500Z,99.09
2022-09-23T04:47:23.465Z,98.88
2022-09-23T04:48:23.337Z,99.40
2022-09-23T04:49:23.542Z,99.30
2022-09-23T04:50:23.901Z,99.19
2022-09-23T04:51:25.966Z,99.30
2022-09-23T04:52:23.296Z,99.30
2022-09-23T04:53:23.281Z,99.30
2022-09-23T04:54:23.261Z,99.71
2022-09-23T04:55:23.304Z,98.99
2022-09-23T04:56:23.252Z,98.93
2022-09-23T04:57:23.317Z,99.14
2022-09-23T04:58:23.217Z,99.04
2022-09-23T04:59:23.206Z,99.04
2022-09-23T05:00:23.206Z,99.14
2022-09-23T05:01:23.450Z,98.93
2022-09-23T05:02:23.253Z,99.24
2022-09-23T05:03:23.361Z,99.14
2022-09-23T05:04:23.148Z,99.24
2022-09-23T05:05:23.167Z,98.93
2022-09-23T05:06:23.177Z,99.14
2022-09-23T05:07:23.243Z,99.04
2022-09-23T05:08:23.135Z,98.93
2022-09-23T05:09:23.195Z,99.04
2022-09-23T05:10:23.081Z,99.14
2022-09-23T05:11:23.204Z,99.44
2022-09-23T05:12:23.215Z,98.93
2022-09-23T05:13:23.055Z,99.04
2022-09-23T05:14:23.276Z,98.93
2022-09-23T05:15:23.039Z,98.32
2022-09-23T05:16:23.422Z,99.04
2022-09-23T05:17:23.037Z,99.04
2022-09-23T05:18:23.000Z,98.72
2022-09-23T05:19:23.004Z,99.24
2022-09-23T05:20:23.066Z,99.24
2022-09-23T05:21:22.972Z,99.14
2022-09-23T05:22:23.113Z,99.14
2022-09-23T05:23:22.973Z,99.24
2022-09-23T05:24:23.569Z,98.83
2022-09-23T05:25:23.115Z,98.93
2022-09-23T05:26:22.945Z,98.83
2022-09-23T05:27:24.143Z,98.42
2022-09-23T05:28:22.901Z,98.42
2022-09-23T05:29:22.925Z,99.14
2022-09-23T05:30:22.889Z,98.83
2022-09-23T05:31:22.872Z,98.83
2022-09-23T05:32:22.866Z,98.72
2022-09-23T05:33:25.609Z,98.72
2022-09-23T05:34:22.826Z,99.04
2022-09-23T05:35:23.011Z,99.04
2022-09-23T05:36:22.805Z,99.04
2022-09-23T05:37:22.831Z,99.04
2022-09-23T05:38:22.782Z,98.83
2022-09-23T05:39:22.839Z,99.14
2022-09-23T05:40:22.807Z,99.04
2022-09-23T05:41:22.759Z,99.04
2022-09-23T05:42:22.742Z,98.99
2022-09-23T05:43:22.739Z,98.68
2022-09-23T05:44:22.718Z,98.58
2022-09-23T05:45:22.734Z,98.99
2022-09-23T05:46:22.771Z,98.99
2022-09-23T05:47:22.710Z,99.09
2022-09-23T05:48:22.678Z,98.99
2022-09-23T05:49:42.517Z,98.99
2022-09-23T05:50:23.674Z,99.19
2022-09-23T05:51:23.989Z,98.88
2022-09-23T05:52:22.688Z,98.83
2022-09-23T05:53:22.620Z,98.47
2022-09-23T05:54:22.676Z,98.79
2022-09-23T05:55:22.612Z,98.58
2022-09-23T05:56:22.716Z,98.99
2022-09-23T05:57:22.590Z,99.09
2022-09-23T05:58:22.704Z,98.99
2022-09-23T05:59:22.551Z,98.99
2022-09-23T06:00:22.717Z,99.09
2022-09-23T06:01:22.619Z,99.51
2022-09-23T06:02:23.645Z,99.19
2022-09-23T06:03:22.570Z,98.99
2022-09-23T06:04:22.519Z,98.88
2022-09-23T06:05:22.546Z,98.94
2022-09-23T06:06:22.489Z,99.05
2022-09-23T06:07:22.560Z,99.35
2022-09-23T06:08:22.478Z,98.94
2022-09-23T06:09:22.450Z,99.05
2022-09-23T06:10:22.453Z,98.94
2022-09-23T06:11:22.440Z,98.94
2022-09-23T06:12:22.422Z,99.05
2022-09-23T06:13:22.393Z,99.25
2022-09-23T06:14:22.393Z,98.53
2022-09-23T06:15:22.399Z,98.84
2022-09-23T06:16:22.524Z,99.15
2022-09-23T06:17:22.351Z,98.74
2022-09-23T06:18:22.351Z,98.90
2022-09-23T06:19:22.327Z,99.00
2022-09-23T06:20:22.331Z,98.90
2022-09-23T06:21:22.357Z,98.90
2022-09-23T06:22:22.305Z,98.69
2022-09-23T06:23:25.818Z,99.10
2022-09-23T06:24:26.105Z,99.10
2022-09-23T06:25:23.277Z,98.49
2022-09-23T06:26:22.260Z,98.59
2022-09-23T06:27:23.409Z,99.00
2022-09-23T06:28:22.234Z,99.00
2022-09-23T06:29:22.232Z,99.21
2022-09-23T06:30:22.216Z,99.00
2022-09-23T06:31:22.225Z,99.10
2022-09-23T06:32:22.932Z,99.00
2022-09-23T06:33:33.964Z,99.05
2022-09-23T06:34:23.168Z,99.10
2022-09-23T06:35:27.057Z,99.05
2022-09-23T06:36:38.385Z,98.33
2022-09-23T06:37:23.134Z,98.44
2022-09-23T06:38:29.113Z,98.33
2022-09-23T06:39:22.126Z,98.44
2022-09-23T06:40:22.212Z,99.16
2022-09-23T06:41:22.092Z,98.75
2022-09-23T06:42:22.175Z,98.24
2022-09-23T06:43:22.209Z,99.26
2022-09-23T06:44:22.063Z,99.01
2022-09-23T06:45:22.241Z,98.60
2022-09-23T06:46:22.117Z,98.50
2022-09-23T06:47:22.210Z,98.70
2022-09-23T06:48:22.008Z,98.55
2022-09-23T06:49:22.003Z,98.04
2022-09-23T06:50:21.990Z,98.35
2022-09-23T06:51:22.028Z,98.14
2022-09-23T06:52:21.976Z,98.25
2022-09-23T06:53:23.116Z,97.99
2022-09-23T06:54:21.947Z,97.99
2022-09-23T06:55:22.061Z,98.10
2022-09-23T06:56:22.062Z,98.10
2022-09-23T06:57:21.913Z,98.30
2022-09-23T06:58:22.134Z,97.99
2022-09-23T06:59:21.909Z,97.69
2022-09-23T07:00:21.946Z,97.17
2022-09-23T07:01:21.909Z,97.64
2022-09-23T07:02:22.024Z,97.33
2022-09-23T07:03:21.848Z,97.23
2022-09-23T07:04:24.979Z,97.85
2022-09-23T07:05:22.833Z,97.54
2022-09-23T07:06:21.984Z,97.80
2022-09-23T07:07:21.823Z,97.23
2022-09-23T07:08:28.521Z,96.37
2022-09-23T07:09:21.786Z,96.98
2022-09-23T07:10:21.957Z,96.26
2022-09-23T07:11:21.763Z,96.01
2022-09-23T07:12:22.044Z,96.42
2022-09-23T07:13:21.742Z,95.81
2022-09-23T07:14:21.824Z,96.12
2022-09-23T07:15:21.802Z,95.97
2022-09-23T07:16:21.813Z,95.76
2022-09-23T07:17:22.621Z,95.66
2022-09-23T07:18:21.708Z,96.17
2022-09-23T07:19:21.815Z,96.13
2022-09-23T07:20:21.669Z,95.72
2022-09-23T07:21:21.825Z,95.10
2022-09-23T07:22:21.885Z,95.31
2022-09-23T07:23:22.432Z,94.96
2022-09-23T07:24:22.106Z,94.85
2022-09-23T07:25:21.614Z,95.06
2022-09-23T07:26:21.656Z,94.92
2022-09-23T07:27:21.595Z,94.92
2022-09-23T07:28:45.424Z,93.99
2022-09-23T07:29:22.425Z,94.15
2022-09-23T07:30:25.383Z,94.06
2022-09-23T07:31:33.565Z,94.06
2022-09-23T07:32:22.627Z,93.85
2022-09-23T07:33:31.734Z,93.13
2022-09-23T07:34:22.513Z,93.24
2022-09-23T07:35:21.503Z,93.19
2022-09-23T07:36:21.513Z,92.58
2022-09-23T07:37:21.571Z,92.99
2022-09-23T07:38:21.469Z,92.88
2022-09-23T07:39:21.579Z,92.43
2022-09-23T07:40:21.527Z,92.23
2022-09-23T07:41:24.625Z,92.02
2022-09-23T07:42:21.552Z,91.20
2022-09-23T07:43:21.414Z,91.61
2022-09-23T07:44:21.617Z,91.47
2022-09-23T07:45:21.392Z,90.45
2022-09-23T07:46:21.694Z,89.53
2022-09-23T07:47:23.919Z,89.49
2022-09-23T07:48:24.051Z,89.28
2022-09-23T07:49:21.354Z,88.67
2022-09-23T07:50:21.450Z,88.17
2022-09-23T07:51:23.899Z,88.43
2022-09-23T07:52:21.317Z,88.06
2022-09-23T07:53:21.305Z,88.02
2022-09-23T07:54:21.429Z,88.02
2022-09-23T07:55:21.433Z,87.92
2022-09-23T07:56:21.280Z,87.82
2022-09-23T07:57:21.448Z,87.92
2022-09-23T07:58:21.902Z,87.10
2022-09-23T07:59:23.921Z,86.96
2022-09-23T08:00:21.238Z,86.45
2022-09-23T08:01:21.345Z,86.45
2022-09-23T08:02:21.411Z,86.45
2022-09-23T08:03:21.254Z,86.45
2022-09-23T08:04:21.301Z,87.57
2022-09-23T08:05:21.179Z,86.30
2022-09-23T08:06:21.922Z,85.80
2022-09-23T08:07:21.171Z,85.75
2022-09-23T08:08:21.319Z,85.75
2022-09-23T08:09:21.130Z,86.37
2022-09-23T08:10:21.334Z,85.31
2022-09-23T08:11:21.116Z,84.84
2022-09-23T08:12:21.600Z,85.82
2022-09-23T08:13:21.090Z,85.21
2022-09-23T08:14:21.157Z,85.61
2022-09-23T08:15:21.066Z,84.59
2022-09-23T08:16:23.993Z,83.84
2022-09-23T08:17:21.177Z,83.84
2022-09-23T08:18:21.050Z,83.84
2022-09-23T08:19:21.203Z,83.84
2022-09-23T08:20:21.030Z,84.25
2022-09-23T08:21:21.209Z,82.93
2022-09-23T08:22:20.999Z,82.59
2022-09-23T08:23:21.015Z,82.38
2022-09-23T08:24:20.968Z,82.89
2022-09-23T08:25:22.667Z,82.95
2022-09-23T08:26:22.469Z,82.24
2022-09-23T08:27:21.042Z,82.85
2022-09-23T08:28:20.921Z,82.75
2022-09-23T08:29:20.909Z,82.54
2022-09-23T08:30:21.109Z,82.51
2022-09-23T08:31:20.933Z,82.00
2022-09-23T08:32:20.909Z,81.96
2022-09-23T08:33:23.379Z,81.09
2022-09-23T08:34:20.889Z,81.09
2022-09-23T08:35:20.907Z,80.68
2022-09-23T08:36:20.939Z,80.74
2022-09-23T08:37:20.820Z,80.94
2022-09-23T08:38:20.905Z,81.05
2022-09-23T08:39:20.803Z,80.74
2022-09-23T08:40:23.768Z,80.74
2022-09-23T08:41:20.791Z,80.71
2022-09-23T08:42:20.929Z,81.01
2022-09-23T08:43:20.766Z,80.97
2022-09-23T08:44:20.948Z,80.91
2022-09-23T08:45:21.411Z,81.11
2022-09-23T08:46:20.787Z,80.77
2022-09-23T08:47:20.720Z,79.14
2022-09-23T08:48:20.816Z,80.57
2022-09-23T08:49:20.714Z,80.06
2022-09-23T08:50:20.861Z,79.55
2022-09-23T08:51:20.722Z,79.45
2022-09-23T08:52:21.821Z,79.00
2022-09-23T08:53:20.649Z,78.40
2022-09-23T08:54:21.873Z,77.62
2022-09-23T08:55:20.662Z,78.44
2022-09-23T08:56:20.617Z,78.84
2022-09-23T08:57:20.604Z,78.80
2022-09-23T08:58:25.289Z,78.60
2022-09-23T08:59:21.606Z,78.91
2022-09-23T09:00:20.631Z,78.60
2022-09-23T09:01:20.625Z,78.40
2022-09-23T09:02:20.608Z,78.40
2022-09-23T09:03:41.535Z,78.30
2022-09-23T09:04:20.669Z,78.30
2022-09-23T09:05:20.526Z,78.09
2022-09-23T09:06:20.687Z,79.31
2022-09-23T09:07:37.475Z,78.36
2022-09-23T09:08:21.478Z,78.60
2022-09-23T09:09:20.477Z,78.80
2022-09-23T09:10:20.569Z,78.97
2022-09-23T09:11:20.463Z,79.17
2022-09-23T09:12:20.436Z,78.36
2022-09-23T09:13:20.531Z,79.68
2022-09-23T09:14:20.414Z,79.78
2022-09-23T09:15:20.582Z,80.08
2022-09-23T09:16:31.718Z,78.63
2022-09-23T09:17:21.364Z,78.42
2022-09-23T09:18:20.604Z,77.86
2022-09-23T09:19:20.914Z,77.92
2022-09-23T09:20:20.529Z,78.93
2022-09-23T09:21:20.356Z,77.14
2022-09-23T09:22:20.384Z,77.21
2022-09-23T09:23:20.392Z,78.33
2022-09-23T09:24:20.308Z,78.02
2022-09-23T09:25:20.396Z,78.33
2022-09-23T09:26:20.296Z,77.82
2022-09-23T09:27:20.410Z,77.51
2022-09-23T09:28:20.265Z,77.92
2022-09-23T09:29:35.000Z,77.51
2022-09-23T09:30:21.236Z,77.28
2022-09-23T09:31:20.494Z,78.79
2022-09-23T09:32:20.229Z,78.28
2022-09-23T09:33:20.248Z,78.28
2022-09-23T09:34:20.191Z,77.68
2022-09-23T09:35:21.285Z,77.88
2022-09-23T09:36:20.200Z,78.35
2022-09-23T09:37:20.914Z,76.53
2022-09-23T09:38:20.443Z,76.73
2022-09-23T09:39:25.454Z,77.44
2022-09-23T09:40:21.242Z,77.14
2022-09-23T09:41:20.312Z,76.59
2022-09-23T09:42:20.105Z,76.90
2022-09-23T09:43:20.315Z,77.00
2022-09-23T09:44:20.117Z,77.10
2022-09-23T09:45:20.139Z,77.97
2022-09-23T09:46:20.233Z,76.86
2022-09-23T09:47:20.055Z,76.76
2022-09-23T09:48:20.136Z,76.46
2022-09-23T09:49:20.032Z,76.66
2022-09-23T09:50:20.971Z,75.65
2022-09-23T09:51:20.213Z,73.83
2022-09-23T09:52:19.998Z,74.23
2022-09-23T09:53:20.127Z,75.41
2022-09-23T09:54:19.928Z,74.30
2022-09-23T09:55:19.981Z,75.21
2022-09-23T09:56:19.929Z,73.28
2022-09-23T09:57:19.893Z,70.96
2022-09-23T09:58:19.894Z,72.08
2022-09-23T09:59:19.953Z,72.48
2022-09-23T10:00:19.855Z,72.28
2022-09-23T10:01:20.015Z,73.69
2022-09-23T10:02:19.854Z,73.79
2022-09-23T10:03:19.977Z,72.24
2022-09-23T10:04:22.420Z,72.48
2022-09-23T10:05:19.799Z,71.37
2022-09-23T10:06:19.782Z,72.24
2022-09-23T10:07:19.802Z,71.87
2022-09-23T10:08:19.900Z,71.57
2022-09-23T10:09:19.816Z,71.23
2022-09-23T10:10:31.847Z,71.23
2022-09-23T10:11:20.769Z,71.47
2022-09-23T10:12:19.720Z,70.76
2022-09-23T10:13:19.704Z,69.85
2022-09-23T10:14:19.705Z,71.13
2022-09-23T10:15:19.712Z,71.53
2022-09-23T10:16:19.885Z,70.93
2022-09-23T10:17:19.660Z,70.32
2022-09-23T10:18:19.748Z,72.04
2022-09-23T10:19:19.638Z,71.50
2022-09-23T10:20:19.680Z,70.09
2022-09-23T10:21:21.287Z,70.09
2022-09-23T10:22:19.697Z,70.29
2022-09-23T10:23:19.604Z,70.69
2022-09-23T10:24:19.703Z,70.49
2022-09-23T10:25:19.574Z,69.18
2022-09-23T10:26:19.585Z,68.87
2022-09-23T10:27:19.619Z,70.69
2022-09-23T10:28:20.361Z,69.98
2022-09-23T10:29:19.545Z,69.28
2022-09-23T10:30:19.543Z,70.36
2022-09-23T10:31:19.539Z,69.35
2022-09-23T10:32:22.437Z,69.55
2022-09-23T10:33:22.363Z,69.04
2022-09-23T10:34:19.481Z,69.52
2022-09-23T10:35:19.574Z,69.75
2022-09-23T10:36:19.467Z,70.46
2022-09-23T10:37:19.645Z,69.65
2022-09-23T10:38:20.364Z,70.06
2022-09-23T10:39:19.606Z,68.67
2022-09-23T10:40:19.552Z,69.18
2022-09-23T10:41:19.431Z,69.18
2022-09-23T10:42:19.425Z,68.77
2022-09-23T10:43:19.421Z,68.57
2022-09-23T10:44:19.440Z,69.18
2022-09-23T10:45:19.372Z,69.08
2022-09-23T10:46:20.126Z,68.27
2022-09-23T10:47:19.347Z,68.37
2022-09-23T10:48:19.520Z,68.07
2022-09-23T10:49:19.341Z,69.55
2022-09-23T10:50:19.481Z,68.98
2022-09-23T10:51:23.965Z,67.46
2022-09-23T10:52:20.311Z,67.36
2022-09-23T10:53:19.295Z,68.44
2022-09-23T10:54:19.290Z,69.85
2022-09-23T10:55:19.399Z,70.06
2022-09-23T10:56:19.321Z,69.35
2022-09-23T10:57:19.243Z,68.64
2022-09-23T10:58:19.332Z,68.84
2022-09-23T10:59:19.296Z,67.93
2022-09-23T11:00:19.411Z,70.26
2022-09-23T11:01:19.271Z,68.44
2022-09-23T11:02:19.189Z,67.83
2022-09-23T11:03:19.369Z,68.37
2022-09-23T11:04:19.261Z,67.56
2022-09-23T11:05:19.384Z,68.64
2022-09-23T11:06:19.167Z,67.63
2022-09-23T11:07:20.010Z,67.33
2022-09-23T11:08:25.885Z,67.33
2022-09-23T11:09:19.206Z,68.13
2022-09-23T11:10:35.194Z,68.04
2022-09-23T11:11:20.414Z,68.71
2022-09-23T11:12:19.097Z,68.01
2022-09-23T11:13:19.247Z,68.30
2022-09-23T11:14:19.083Z,69.11
2022-09-23T11:15:19.263Z,67.70
2022-09-23T11:16:19.337Z,67.30
2022-09-23T11:17:19.062Z,67.70
2022-09-23T11:18:19.069Z,68.10
2022-09-23T11:19:19.018Z,69.28
2022-09-23T11:20:19.081Z,68.07
2022-09-23T11:21:19.000Z,68.85
2022-09-23T11:22:19.144Z,69.15
2022-09-23T11:23:19.109Z,68.04
2022-09-23T11:24:18.973Z,68.44
2022-09-23T11:25:19.113Z,67.54
2022-09-23T11:26:18.955Z,67.03
2022-09-23T11:27:19.123Z,67.94
2022-09-23T11:28:18.947Z,67.13
2022-09-23T11:29:18.946Z,67.84
2022-09-23T11:30:18.991Z,68.34
2022-09-23T11:31:19.004Z,69.15
2022-09-23T11:32:18.965Z,68.41
2022-09-23T11:33:18.875Z,67.10
2022-09-23T11:34:18.896Z,65.96
2022-09-23T11:35:18.860Z,66.56
2022-09-23T11:36:18.860Z,66.47
2022-09-23T11:37:18.838Z,66.16
2022-09-23T11:38:18.813Z,66.56
2022-09-23T11:39:18.813Z,67.44
2022-09-23T11:40:18.842Z,66.13
2022-09-23T11:41:18.820Z,65.42
2022-09-23T11:42:18.921Z,65.30
2022-09-23T11:43:18.831Z,63.82
2022-09-23T11:44:18.773Z,63.68
2022-09-23T11:45:25.608Z,63.79
2022-09-23T11:46:18.853Z,66.57
2022-09-23T11:47:18.744Z,65.33
2022-09-23T11:48:18.723Z,66.24
2022-09-23T11:49:18.873Z,66.51
2022-09-23T11:50:18.680Z,65.13
2022-09-23T11:51:18.726Z,64.90
2022-09-23T11:52:18.663Z,62.62
2022-09-23T11:53:18.692Z,62.05
2022-09-23T11:54:20.720Z,62.62
2022-09-23T11:55:22.664Z,64.53
2022-09-23T11:56:31.116Z,62.65
2022-09-23T11:57:19.625Z,62.05
2022-09-23T11:58:25.057Z,63.25
2022-09-23T11:59:26.572Z,62.98
2022-09-23T12:00:19.610Z,63.56
2022-09-23T12:01:22.716Z,63.76
2022-09-23T12:02:26.894Z,63.59
2022-09-23T12:03:20.058Z,63.76
2022-09-23T12:04:21.089Z,64.66
2022-09-23T12:05:18.716Z,63.82
2022-09-23T12:06:18.534Z,63.73
2022-09-23T12:07:18.581Z,63.62
2022-09-23T12:08:18.491Z,62.62
2022-09-23T12:09:27.155Z,63.42
2022-09-23T12:10:19.468Z,63.12
2022-09-23T12:11:18.659Z,62.52
2022-09-23T12:12:18.454Z,63.22
2022-09-23T12:13:18.435Z,63.12
2022-09-23T12:14:18.428Z,63.02
2022-09-23T12:15:18.417Z,61.31
2022-09-23T12:16:18.477Z,63.12
2022-09-23T12:17:18.448Z,61.41
2022-09-23T12:18:22.854Z,61.91
2022-09-23T12:19:18.380Z,62.22
2022-09-23T12:20:18.363Z,62.95
2022-09-23T12:21:45.825Z,61.94
2022-09-23T12:22:21.907Z,60.24
2022-09-23T12:23:18.915Z,62.82
2022-09-23T12:24:19.285Z,61.82
2022-09-23T12:25:20.922Z,61.65
2022-09-23T12:26:18.299Z,62.35
2022-09-23T12:27:18.321Z,61.34
2022-09-23T12:28:18.290Z,62.42
2022-09-23T12:29:18.365Z,63.02
2022-09-23T12:30:18.272Z,62.02
2022-09-23T12:31:18.342Z,60.11
2022-09-23T12:32:18.273Z,61.41
2022-09-23T12:33:18.233Z,63.22
2022-09-23T12:34:18.233Z,62.82
2022-09-23T12:35:18.209Z,61.31
2022-09-23T12:36:18.195Z,61.31
2022-09-23T12:37:18.185Z,60.81
2022-09-23T12:38:18.193Z,60.61
2022-09-23T12:39:18.188Z,61.31
2022-09-23T12:40:18.982Z,61.01
2022-09-23T12:41:18.143Z,60.41
2022-09-23T12:42:18.137Z,61.79
2022-09-23T12:43:18.919Z,62.39
2022-09-23T12:44:18.134Z,61.69
2022-09-23T12:45:18.099Z,60.51
2022-09-23T12:46:18.162Z,59.50
2022-09-23T12:47:18.081Z,58.29
2022-09-23T12:48:18.083Z,60.51
2022-09-23T12:49:18.068Z,59.33
2022-09-23T12:50:22.307Z,60.53
2022-09-23T12:51:19.029Z,61.04
2022-09-23T12:52:18.034Z,61.74